DLH1894 LBSF-LOWW
Flight info
| Callsign | DLH1894 |
|---|---|
| Flight time | N/A |
| Altitude | 34000 |
| Route | OGOTA3T/27 OGOTA T228 UTEKA DCT DONIV DCT PARAK DCT BALUX DCT TORNO DCT NATEX NATEX2W |
| Aircraft | A321/M-SDE3FGHIRWY/LB1 |
Departure
| Time | 2026-04-28 20:41 |
|---|---|
| Airport | Sofia Airport (LBSF) |
Arrival
| Time | N/A |
|---|---|
| Airport | Vienna International Airport (LOWW) |
| Time | Latitude | Longitude | Altitude | Speed | Heading |
|---|---|---|---|---|---|
| 2026-04-28 20:00 | 42.69036 | 23.41522 | 1743 ft | 0 kts | 253° |
| 2026-04-28 20:31 | 42.69038 | 23.41532 | 1750 ft | 3 kts | 243° |
| 2026-04-28 20:31 | 42.69046 | 23.41556 | 1748 ft | 3 kts | 243° |
| 2026-04-28 20:32 | 42.69056 | 23.41579 | 1740 ft | 3 kts | 229° |
| 2026-04-28 20:32 | 42.69071 | 23.41598 | 1745 ft | 3 kts | 218° |
| 2026-04-28 20:32 | 42.69086 | 23.41614 | 1744 ft | 2 kts | 220° |
| 2026-04-28 20:32 | 42.69091 | 23.41620 | 1741 ft | 0 kts | 221° |
| 2026-04-28 20:33 | 42.69091 | 23.41621 | 1741 ft | 0 kts | 221° |
| 2026-04-28 20:35 | 42.69091 | 23.41620 | 1741 ft | 1 kts | 221° |
| 2026-04-28 20:35 | 42.69092 | 23.41591 | 1743 ft | 6 kts | 296° |
| 2026-04-28 20:36 | 42.69161 | 23.41562 | 1742 ft | 13 kts | 342° |
| 2026-04-28 20:36 | 42.69227 | 23.41532 | 1742 ft | 10 kts | 342° |
| 2026-04-28 20:36 | 42.69335 | 23.41518 | 1750 ft | 18 kts | 5° |
| 2026-04-28 20:36 | 42.69452 | 23.41558 | 1743 ft | 17 kts | 51° |
| 2026-04-28 20:37 | 42.69458 | 23.41729 | 1750 ft | 23 kts | 94° |
| 2026-04-28 20:37 | 42.69444 | 23.41965 | 1747 ft | 26 kts | 95° |
| 2026-04-28 20:37 | 42.69430 | 23.42210 | 1751 ft | 26 kts | 95° |
| 2026-04-28 20:37 | 42.69415 | 23.42455 | 1751 ft | 26 kts | 94° |
| 2026-04-28 20:38 | 42.69401 | 23.42700 | 1751 ft | 26 kts | 95° |
| 2026-04-28 20:38 | 42.69386 | 23.42945 | 1752 ft | 26 kts | 95° |
| 2026-04-28 20:38 | 42.69371 | 23.43191 | 1752 ft | 26 kts | 95° |
| 2026-04-28 20:38 | 42.69357 | 23.43438 | 1752 ft | 26 kts | 95° |
| 2026-04-28 20:39 | 42.69343 | 23.43671 | 1752 ft | 21 kts | 94° |
| 2026-04-28 20:39 | 42.69334 | 23.43874 | 1767 ft | 22 kts | 81° |
| 2026-04-28 20:39 | 42.69444 | 23.43952 | 1769 ft | 16 kts | 5° |
| 2026-04-28 20:39 | 42.69518 | 23.43905 | 1769 ft | 13 kts | 287° |
| 2026-04-28 20:40 | 42.69524 | 23.43803 | 1765 ft | 0 kts | 275° |
| 2026-04-28 20:40 | 42.69534 | 23.43655 | 1751 ft | 48 kts | 274° |
| 2026-04-28 20:40 | 42.69578 | 23.42879 | 1751 ft | 115 kts | 274° |
| 2026-04-28 20:41 | 42.69656 | 23.41526 | 1752 ft | 170 kts | 274° |
| 2026-04-28 20:41 | 42.69756 | 23.39790 | 2038 ft | 192 kts | 275° |
| 2026-04-28 20:41 | 42.70162 | 23.38070 | 2725 ft | 193 kts | 300° |
| 2026-04-28 20:41 | 42.70968 | 23.36634 | 3468 ft | 191 kts | 315° |
| 2026-04-28 20:42 | 42.72069 | 23.35509 | 3825 ft | 208 kts | 333° |
| 2026-04-28 20:42 | 42.73517 | 23.34877 | 3976 ft | 230 kts | 352° |
| 2026-04-28 20:42 | 42.75193 | 23.34620 | 4135 ft | 255 kts | 353° |
| 2026-04-28 20:42 | 42.77018 | 23.34330 | 4549 ft | 269 kts | 353° |
| 2026-04-28 20:43 | 42.78894 | 23.34020 | 5221 ft | 273 kts | 352° |
| 2026-04-28 20:43 | 42.80756 | 23.33709 | 5957 ft | 272 kts | 352° |
| 2026-04-28 20:43 | 42.82658 | 23.33393 | 6736 ft | 272 kts | 352° |
| 2026-04-28 20:43 | 42.84513 | 23.33082 | 7439 ft | 272 kts | 351° |
| 2026-04-28 20:44 | 42.86406 | 23.32877 | 8116 ft | 274 kts | 355° |
| 2026-04-28 20:44 | 42.88319 | 23.32823 | 8780 ft | 276 kts | 357° |
| 2026-04-28 20:44 | 42.90253 | 23.32833 | 9459 ft | 279 kts | 358° |
| 2026-04-28 20:44 | 42.92198 | 23.32858 | 10122 ft | 281 kts | 358° |
| 2026-04-28 20:45 | 42.94216 | 23.32874 | 10344 ft | 300 kts | 357° |
| 2026-04-28 20:45 | 42.96379 | 23.32875 | 10490 ft | 321 kts | 357° |
| 2026-04-28 20:45 | 42.98667 | 23.32863 | 10681 ft | 334 kts | 357° |
| 2026-04-28 20:45 | 43.00946 | 23.32850 | 11617 ft | 323 kts | 356° |
| 2026-04-28 20:46 | 43.03165 | 23.32835 | 12270 ft | 323 kts | 356° |
| 2026-04-28 20:46 | 43.05419 | 23.32815 | 12890 ft | 324 kts | 356° |
| 2026-04-28 20:46 | 43.07687 | 23.32790 | 13477 ft | 327 kts | 356° |
| 2026-04-28 20:46 | 43.09975 | 23.32769 | 14032 ft | 329 kts | 355° |
| 2026-04-28 20:47 | 43.12277 | 23.32748 | 14523 ft | 332 kts | 355° |
| 2026-04-28 20:47 | 43.14598 | 23.32726 | 15020 ft | 334 kts | 355° |
| 2026-04-28 20:47 | 43.16935 | 23.32681 | 15548 ft | 335 kts | 352° |
| 2026-04-28 20:47 | 43.19234 | 23.32218 | 16072 ft | 333 kts | 342° |
| 2026-04-28 20:48 | 43.21393 | 23.31213 | 16594 ft | 331 kts | 332° |
| 2026-04-28 20:48 | 43.23403 | 23.29690 | 17090 ft | 331 kts | 322° |
| 2026-04-28 20:48 | 43.25192 | 23.27705 | 17602 ft | 330 kts | 314° |
| 2026-04-28 20:48 | 43.26846 | 23.25504 | 18091 ft | 333 kts | 313° |
| 2026-04-28 20:49 | 43.28516 | 23.23289 | 18565 ft | 335 kts | 313° |
| 2026-04-28 20:49 | 43.30199 | 23.21063 | 19005 ft | 337 kts | 313° |
| 2026-04-28 20:49 | 43.31894 | 23.18821 | 19449 ft | 338 kts | 314° |
| 2026-04-28 20:49 | 43.33590 | 23.16582 | 19900 ft | 340 kts | 314° |
| 2026-04-28 20:50 | 43.35300 | 23.14322 | 20346 ft | 341 kts | 314° |
| 2026-04-28 20:50 | 43.36995 | 23.12075 | 20783 ft | 343 kts | 314° |
| 2026-04-28 20:50 | 43.38717 | 23.09789 | 21244 ft | 344 kts | 314° |
| 2026-04-28 20:50 | 43.40440 | 23.07498 | 21701 ft | 345 kts | 314° |
| 2026-04-28 20:51 | 43.42172 | 23.05196 | 22131 ft | 347 kts | 314° |
| 2026-04-28 20:51 | 43.43911 | 23.02886 | 22527 ft | 348 kts | 314° |
| 2026-04-28 20:51 | 43.45660 | 23.00560 | 22915 ft | 350 kts | 314° |
| 2026-04-28 20:51 | 43.46820 | 22.99016 | 23185 ft | 351 kts | 314° |
| 2026-04-28 20:52 | 43.49180 | 22.95871 | 23704 ft | 353 kts | 314° |
| 2026-04-28 20:52 | 43.50950 | 22.93509 | 24030 ft | 355 kts | 314° |
| 2026-04-28 20:52 | 43.52702 | 22.91173 | 24347 ft | 356 kts | 314° |
| 2026-04-28 20:52 | 43.54508 | 22.88763 | 24683 ft | 358 kts | 314° |
| 2026-04-28 20:53 | 43.58074 | 22.83998 | 25371 ft | 357 kts | 314° |
| 2026-04-28 20:53 | 43.59819 | 22.81666 | 26171 ft | 345 kts | 314° |
| 2026-04-28 20:53 | 43.61535 | 22.79366 | 26687 ft | 342 kts | 313° |
| 2026-04-28 20:54 | 43.63234 | 22.77081 | 27136 ft | 338 kts | 313° |
| 2026-04-28 20:54 | 43.64905 | 22.74834 | 27708 ft | 333 kts | 313° |
| 2026-04-28 20:54 | 43.66563 | 22.72606 | 28149 ft | 331 kts | 313° |
| 2026-04-28 20:54 | 43.68215 | 22.70385 | 28407 ft | 334 kts | 313° |
| 2026-04-28 20:55 | 43.69897 | 22.68119 | 28548 ft | 340 kts | 313° |
| 2026-04-28 20:55 | 43.71587 | 22.65832 | 28870 ft | 339 kts | 313° |
| 2026-04-28 20:55 | 43.73259 | 22.63571 | 29202 ft | 340 kts | 313° |
| 2026-04-28 20:55 | 43.74955 | 22.61282 | 29540 ft | 339 kts | 313° |
| 2026-04-28 20:56 | 43.76632 | 22.59020 | 30041 ft | 335 kts | 313° |
| 2026-04-28 20:56 | 43.78296 | 22.56779 | 30394 ft | 333 kts | 313° |
| 2026-04-28 20:56 | 43.79946 | 22.54547 | 30701 ft | 331 kts | 313° |
| 2026-04-28 20:56 | 43.81592 | 22.52315 | 30984 ft | 330 kts | 313° |
| 2026-04-28 20:57 | 43.83234 | 22.50089 | 31258 ft | 330 kts | 313° |